Time;durP1;ratioP1;P1;durP2;ratioP2;P2;SDS_P1;SDS_P2;PMS_P1;PMS_P2;Temp;Humidity;BMP_temperature;BMP_pressure;BME280_temperature;BME280_humidity;BME280_pressure;Samples;Min_cycle;Max_cycle;Signal;HPM_P1;HPM_P2
2022/07/17 00:01:49;;;;;;;4.32;4.05;;;;;;;-141.48;100.00;69781.59;4955267;29;20166;-61
2022/07/17 00:04:20;;;;;;;4.50;4.10;;;;;;;-141.48;100.00;69781.59;4971439;29;20045;-61
2022/07/17 00:06:51;;;;;;;4.03;3.70;;;;;;;-141.48;100.00;69781.59;4972092;29;20026;-62
2022/07/17 00:09:21;;;;;;;6.90;4.43;;;;;;;-141.48;100.00;69781.59;4972275;29;20503;-63
2022/07/17 00:11:51;;;;;;;5.55;4.50;;;;;;;-141.48;100.00;69781.59;4972121;29;20042;-62
2022/07/17 00:14:22;;;;;;;4.22;4.03;;;;;;;-141.48;100.00;69781.59;4971586;29;20084;-62
2022/07/17 00:16:53;;;;;;;5.35;4.88;;;;;;;-141.48;100.00;69781.59;4971466;29;20439;-62
2022/07/17 00:19:24;;;;;;;5.25;4.88;;;;;;;-141.48;100.00;69781.59;4971512;29;20499;-63
2022/07/17 00:21:55;;;;;;;5.55;5.05;;;;;;;-141.48;100.00;69781.59;4970907;29;20026;-61
2022/07/17 00:24:25;;;;;;;5.45;4.68;;;;;;;-141.48;100.00;69781.59;4970680;29;20373;-64
2022/07/17 00:26:56;;;;;;;4.78;4.30;;;;;;;-141.48;100.00;69781.59;4955255;29;20511;-62
2022/07/17 00:29:26;;;;;;;5.55;5.15;;;;;;;-141.48;100.00;69781.59;4970924;29;20471;-62
2022/07/17 00:31:57;;;;;;;4.35;3.95;;;;;;;-141.48;100.00;69781.59;4954527;29;20119;-62
2022/07/17 00:34:27;;;;;;;6.40;4.90;;;;;;;-141.48;100.00;69781.59;4971101;29;20031;-62
2022/07/17 00:36:58;;;;;;;4.65;4.28;;;;;;;-141.48;100.00;69781.59;4971235;29;20403;-62
2022/07/17 00:39:28;;;;;;;5.22;4.93;;;;;;;-141.48;100.00;69781.59;4971069;29;20045;-63
2022/07/17 00:41:59;;;;;;;5.75;5.25;;;;;;;-141.48;100.00;69781.59;4971604;29;20038;-62
2022/07/17 00:44:29;;;;;;;7.53;4.72;;;;;;;-141.48;100.00;69781.59;4970329;29;20257;-62
2022/07/17 00:47:00;;;;;;;4.70;4.22;;;;;;;-141.48;100.00;69781.59;4971162;29;20043;-63
2022/07/17 00:49:30;;;;;;;5.63;5.35;;;;;;;-141.48;100.00;69781.59;4970577;29;20034;-63
2022/07/17 00:52:01;;;;;;;5.30;4.75;;;;;;;-141.48;100.00;69781.59;4970511;29;20403;-63
2022/07/17 00:54:35;;;;;;;5.32;4.95;;;;;;;-141.48;100.00;69781.59;4970362;29;20468;-64
2022/07/17 00:57:07;;;;;;;9.27;5.40;;;;;;;-141.48;100.00;69781.59;4953850;29;20042;-64
2022/07/17 00:59:39;;;;;;;8.40;5.65;;;;;;;-141.48;100.00;69781.59;4970219;29;20164;-64
2022/07/17 01:02:16;;;;;;;5.50;4.97;;;;;;;-141.48;100.00;69781.59;4953588;29;20035;-63
2022/07/17 01:04:46;;;;;;;5.60;5.20;;;;;;;-141.48;100.00;69781.59;4970385;29;20049;-63
2022/07/17 01:07:18;;;;;;;5.82;5.40;;;;;;;-141.48;100.00;69781.59;4970688;29;20035;-63
2022/07/17 01:09:48;;;;;;;12.05;5.70;;;;;;;-141.48;100.00;69781.59;4954403;29;20523;-63
2022/07/17 01:12:19;;;;;;;4.72;4.47;;;;;;;-141.48;100.00;69781.59;4970297;29;20039;-63
2022/07/17 01:14:52;;;;;;;4.28;4.18;;;;;;;-141.48;100.00;69781.59;4969837;29;20038;-64
2022/07/17 01:17:23;;;;;;;5.65;5.13;;;;;;;-141.48;100.00;69781.59;4970043;29;20060;-63
2022/07/17 01:19:53;;;;;;;8.88;6.15;;;;;;;-141.48;100.00;69781.59;4970218;29;20468;-63
2022/07/17 01:22:25;;;;;;;4.13;4.03;;;;;;;-141.48;100.00;69781.59;4970145;29;20042;-63
2022/07/17 01:24:55;;;;;;;5.85;5.35;;;;;;;-141.48;100.00;69781.59;4970725;29;20110;-62
2022/07/17 01:27:25;;;;;;;5.93;5.45;;;;;;;-141.48;100.00;69781.59;4954330;29;20126;-62
2022/07/17 01:29:56;;;;;;;6.57;4.25;;;;;;;-141.48;100.00;69781.59;4970738;29;20034;-63
2022/07/17 01:32:34;;;;;;;6.40;5.75;;;;;;;-141.48;100.00;69781.59;4970442;29;20030;-62
2022/07/17 01:35:06;;;;;;;3.53;3.38;;;;;;;-141.48;100.00;69781.59;4954658;29;20149;-62
2022/07/17 01:37:37;;;;;;;4.93;4.38;;;;;;;-141.48;100.00;69781.59;4970716;29;20035;-62
2022/07/17 01:40:12;;;;;;;10.68;5.45;;;;;;;-141.48;100.00;69781.59;4970909;29;20031;-62
2022/07/17 01:42:47;;;;;;;4.82;4.53;;;;;;;-141.48;100.00;69781.59;4970418;29;20035;-62
2022/07/17 01:45:18;;;;;;;5.07;4.78;;;;;;;-141.48;100.00;69781.59;4971050;29;20042;-63
2022/07/17 01:47:49;;;;;;;5.45;4.95;;;;;;;-141.48;100.00;69781.59;4971266;29;20031;-63
2022/07/17 01:50:19;;;;;;;4.07;3.88;;;;;;;-141.48;100.00;69781.59;4971291;29;20031;-63
2022/07/17 01:52:50;;;;;;;4.82;4.63;;;;;;;-141.48;100.00;69781.59;4971277;29;20031;-63
2022/07/17 01:55:20;;;;;;;5.13;4.82;;;;;;;-141.48;100.00;69781.59;4953824;29;20049;-63
2022/07/17 01:57:50;;;;;;;4.68;4.22;;;;;;;-141.48;100.00;69781.59;4970475;29;20035;-63
2022/07/17 02:00:24;;;;;;;10.20;5.80;;;;;;;-141.48;100.00;69781.59;4970546;29;20030;-63
2022/07/17 02:02:54;;;;;;;5.82;5.35;;;;;;;-141.48;100.00;69781.59;4954172;29;20031;-63
2022/07/17 02:05:24;;;;;;;5.35;4.93;;;;;;;-141.48;100.00;69781.59;4969581;29;20050;-63
2022/07/17 02:07:55;;;;;;;5.30;5.07;;;;;;;-141.48;100.00;69781.59;4954032;29;20122;-63
2022/07/17 02:10:25;;;;;;;5.47;5.10;;;;;;;-141.48;100.00;69781.59;4969764;29;20053;-63
2022/07/17 02:12:57;;;;;;;6.03;5.40;;;;;;;-141.48;100.00;69781.59;4969654;29;20079;-63
2022/07/17 02:15:28;;;;;;;6.45;5.95;;;;;;;-141.48;100.00;69781.59;4969144;29;20035;-62
2022/07/17 02:17:58;;;;;;;5.32;4.95;;;;;;;-141.48;100.00;69781.59;4969572;29;20026;-63
2022/07/17 02:20:29;;;;;;;4.10;3.90;;;;;;;-141.48;100.00;69781.59;4969194;29;20134;-63
2022/07/17 02:22:59;;;;;;;6.63;6.13;;;;;;;-141.48;100.00;69781.59;4969493;29;20027;-63
2022/07/17 02:25:29;;;;;;;9.77;5.22;;;;;;;-141.48;100.00;69781.59;4968654;29;20026;-63
2022/07/17 02:28:00;;;;;;;7.15;5.15;;;;;;;-141.48;100.00;69781.59;4969321;29;20385;-63
2022/07/17 02:30:30;;;;;;;5.78;5.18;;;;;;;-141.48;100.00;69781.59;4968894;29;20031;-63
2022/07/17 02:33:00;;;;;;;5.15;4.65;;;;;;;-141.48;100.00;69781.59;4969039;29;20031;-63
2022/07/17 02:35:31;;;;;;;6.35;5.93;;;;;;;-141.48;100.00;69781.59;4968762;29;20072;-63
2022/07/17 02:38:01;;;;;;;6.15;4.47;;;;;;;-141.48;100.00;69781.59;4969148;29;20034;-63
2022/07/17 02:40:32;;;;;;;4.72;4.38;;;;;;;-141.48;100.00;69781.59;4969187;29;20106;-63
2022/07/17 02:43:02;;;;;;;5.72;4.30;;;;;;;-141.48;100.00;69781.59;4968878;29;20088;-63
2022/07/17 02:45:33;;;;;;;7.50;5.35;;;;;;;-141.48;100.00;69781.59;4968388;29;20479;-63
2022/07/17 02:48:04;;;;;;;5.80;5.40;;;;;;;-141.48;100.00;69781.59;4968754;29;20026;-63
2022/07/17 02:50:34;;;;;;;6.32;5.82;;;;;;;-141.48;100.00;69781.59;4968767;29;20043;-63
2022/07/17 02:53:04;;;;;;;7.97;4.80;;;;;;;-141.48;100.00;69781.59;4968950;29;20132;-63
2022/07/17 02:55:35;;;;;;;4.80;4.50;;;;;;;-141.48;100.00;69781.59;4968615;29;20079;-63
2022/07/17 02:58:05;;;;;;;4.97;4.43;;;;;;;-141.48;100.00;69781.59;4968529;29;20038;-63
2022/07/17 03:00:35;;;;;;;7.70;5.10;;;;;;;-141.48;100.00;69781.59;4968728;29;20038;-63
2022/07/17 03:03:06;;;;;;;8.60;6.10;;;;;;;-141.48;100.00;69781.59;4968576;29;20031;-63
2022/07/17 03:05:36;;;;;;;5.07;4.68;;;;;;;-141.48;100.00;69781.59;4968259;29;20444;-63
2022/07/17 03:08:07;;;;;;;4.72;4.47;;;;;;;-141.48;100.00;69781.59;4968462;29;20417;-63
2022/07/17 03:10:37;;;;;;;5.95;5.60;;;;;;;-141.48;100.00;69781.59;4968187;29;20037;-63
2022/07/17 03:13:08;;;;;;;7.63;6.90;;;;;;;-141.48;100.00;69781.59;4968656;29;20023;-63
2022/07/17 03:15:38;;;;;;;6.03;5.72;;;;;;;-141.48;100.00;69781.59;4968347;29;20396;-63
2022/07/17 03:18:09;;;;;;;7.45;6.75;;;;;;;-141.48;100.00;69781.59;4968717;29;20081;-63
2022/07/17 03:20:39;;;;;;;6.10;5.60;;;;;;;-141.48;100.00;69781.59;4968428;29;20023;-63
2022/07/17 03:23:10;;;;;;;12.45;5.70;;;;;;;-141.48;100.00;69781.59;4969533;29;20472;-63
2022/07/17 03:25:41;;;;;;;5.68;5.10;;;;;;;-141.48;100.00;69781.59;4958153;29;20030;-63
2022/07/17 03:28:11;;;;;;;6.57;5.43;;;;;;;-141.48;100.00;69781.59;4974841;29;20163;-63
2022/07/17 03:30:41;;;;;;;6.43;5.93;;;;;;;-141.48;100.00;69781.59;4974884;29;20080;-62
2022/07/17 03:33:12;;;;;;;5.57;5.10;;;;;;;-141.48;100.00;69781.59;4974245;29;20041;-63
2022/07/17 03:35:42;;;;;;;7.68;6.85;;;;;;;-141.48;100.00;69781.59;4974192;29;20034;-63
2022/07/17 03:38:13;;;;;;;8.65;6.43;;;;;;;-141.48;100.00;69781.59;4974586;29;20026;-62
2022/07/17 03:40:43;;;;;;;7.28;5.15;;;;;;;-141.48;100.00;69781.59;4974215;29;20022;-62
2022/07/17 03:43:13;;;;;;;6.03;5.40;;;;;;;-141.48;100.00;69781.59;4973967;29;20121;-62
2022/07/17 03:45:44;;;;;;;5.97;5.60;;;;;;;-141.48;100.00;69781.59;4957314;29;20515;-62
2022/07/17 03:48:14;;;;;;;5.28;4.90;;;;;;;-141.48;100.00;69781.59;4974161;29;20376;-63
2022/07/17 03:50:45;;;;;;;5.25;5.03;;;;;;;-141.48;100.00;69781.59;4973789;29;20027;-62
2022/07/17 03:53:15;;;;;;;7.00;6.30;;;;;;;-141.48;100.00;69781.59;4973959;29;20038;-64
2022/07/17 03:55:45;;;;;;;6.15;5.70;;;;;;;-141.48;100.00;69781.59;4973750;29;20035;-65
2022/07/17 03:58:16;;;;;;;6.40;6.00;;;;;;;-141.48;100.00;69781.59;4974303;29;20023;-64
2022/07/17 04:00:46;;;;;;;4.65;4.25;;;;;;;-141.48;100.00;69781.59;4974171;29;20030;-64
2022/07/17 04:03:17;;;;;;;7.75;7.07;;;;;;;-141.48;100.00;69781.59;4974032;29;20027;-64
2022/07/17 04:05:47;;;;;;;9.38;6.38;;;;;;;-141.48;100.00;69781.59;4974262;29;20075;-62
2022/07/17 04:08:18;;;;;;;10.18;5.60;;;;;;;-141.48;100.00;69781.59;4958243;29;20549;-62
2022/07/17 04:10:48;;;;;;;6.22;4.63;;;;;;;-141.48;100.00;69781.59;4974802;29;20057;-62
2022/07/17 04:13:19;;;;;;;5.22;4.85;;;;;;;-141.48;100.00;69781.59;4973939;29;20034;-62
2022/07/17 04:15:49;;;;;;;6.25;5.85;;;;;;;-141.48;100.00;69781.59;4973609;29;20031;-63
2022/07/17 04:18:21;;;;;;;5.32;5.03;;;;;;;-141.48;100.00;69781.59;4973995;29;20498;-62
2022/07/17 04:20:53;;;;;;;10.05;5.72;;;;;;;-141.48;100.00;69781.59;4974121;29;20390;-62
2022/07/17 04:23:23;;;;;;;6.22;5.88;;;;;;;-141.48;100.00;69781.59;4957211;29;20030;-63
2022/07/17 04:25:54;;;;;;;6.57;5.38;;;;;;;-141.48;100.00;69781.59;4974195;29;20027;-62
2022/07/17 04:28:25;;;;;;;7.68;6.18;;;;;;;-141.48;100.00;69781.59;4974485;29;20399;-62
2022/07/17 04:30:55;;;;;;;6.70;5.68;;;;;;;-141.48;100.00;69781.59;4974126;29;20031;-62
2022/07/17 04:33:26;;;;;;;5.93;5.53;;;;;;;-141.48;100.00;69781.59;4957314;29;20166;-62
2022/07/17 04:35:57;;;;;;;5.78;5.38;;;;;;;-141.48;100.00;69781.59;4971409;29;20352;-62
2022/07/17 04:38:27;;;;;;;8.95;5.28;;;;;;;-141.48;100.00;69781.59;4955291;29;20045;-63
2022/07/17 04:40:58;;;;;;;16.35;5.78;;;;;;;-141.48;100.00;69781.59;4971659;29;20345;-61
2022/07/17 04:43:28;;;;;;;6.22;5.72;;;;;;;-141.48;100.00;69781.59;4983859;24;20153;-62
2022/07/17 04:45:58;;;;;;;6.03;5.00;;;;;;;-141.48;100.00;69781.59;4956052;29;20090;-63
2022/07/17 04:48:29;;;;;;;5.15;4.88;;;;;;;-141.48;100.00;69781.59;4972477;29;20399;-63
2022/07/17 04:50:59;;;;;;;20.15;7.18;;;;;;;-141.48;100.00;69781.59;4971985;29;20034;-63
2022/07/17 04:53:30;;;;;;;6.82;6.45;;;;;;;-141.48;100.00;69781.59;4972054;29;20039;-63
2022/07/17 04:56:01;;;;;;;8.32;6.60;;;;;;;-141.48;100.00;69781.59;4972363;29;20035;-64
2022/07/17 04:58:31;;;;;;;6.72;6.10;;;;;;;-141.48;100.00;69781.59;4972173;29;20092;-64
2022/07/17 05:01:02;;;;;;;5.60;5.35;;;;;;;-141.48;100.00;69781.59;4972537;29;20030;-64
2022/07/17 05:03:32;;;;;;;7.82;5.35;;;;;;;-141.48;100.00;69781.59;4971544;29;20023;-64
2022/07/17 05:06:03;;;;;;;6.82;6.38;;;;;;;-141.48;100.00;69781.59;4972219;29;20117;-69
2022/07/17 05:08:34;;;;;;;6.28;5.75;;;;;;;-141.48;100.00;69781.59;4972138;29;20492;-64
2022/07/17 05:11:05;;;;;;;11.05;7.75;;;;;;;-141.48;100.00;69781.59;4955914;29;20106;-64
2022/07/17 05:13:35;;;;;;;5.82;5.43;;;;;;;-141.48;100.00;69781.59;4955300;29;20031;-64
2022/07/17 05:16:06;;;;;;;6.45;5.93;;;;;;;-141.48;100.00;69781.59;4971696;29;20153;-64
2022/07/17 05:18:37;;;;;;;7.40;6.43;;;;;;;-141.48;100.00;69781.59;4971827;29;20034;-64
2022/07/17 05:21:07;;;;;;;9.27;6.38;;;;;;;-141.48;100.00;69781.59;4971701;29;20023;-63
2022/07/17 05:23:38;;;;;;;7.05;6.55;;;;;;;-141.48;100.00;69781.59;4971403;29;20054;-63
2022/07/17 05:26:08;;;;;;;6.25;5.82;;;;;;;-141.48;100.00;69781.59;4971656;29;20027;-63
2022/07/17 05:28:38;;;;;;;6.07;5.72;;;;;;;-141.48;100.00;69781.59;4955179;29;20109;-63
2022/07/17 05:31:09;;;;;;;6.50;6.00;;;;;;;-141.48;100.00;69781.59;4971484;29;20026;-63
2022/07/17 05:33:39;;;;;;;9.15;5.95;;;;;;;-141.48;100.00;69781.59;4971245;29;20429;-64
2022/07/17 05:36:10;;;;;;;7.10;5.97;;;;;;;-141.48;100.00;69781.59;4971489;29;20033;-64
2022/07/17 05:38:40;;;;;;;7.03;6.63;;;;;;;-141.48;100.00;69781.59;4971554;29;20507;-64
2022/07/17 05:41:10;;;;;;;6.45;6.05;;;;;;;-141.48;100.00;69781.59;4971500;29;20023;-64
2022/07/17 05:43:41;;;;;;;7.32;6.63;;;;;;;-141.48;100.00;69781.59;4954602;29;20031;-64
2022/07/17 05:46:12;;;;;;;7.85;6.97;;;;;;;-141.48;100.00;69781.59;4970611;29;20050;-64
2022/07/17 05:48:43;;;;;;;7.65;7.15;;;;;;;-141.48;100.00;69781.59;4971213;29;20098;-64
2022/07/17 05:51:13;;;;;;;7.07;6.45;;;;;;;-141.48;100.00;69781.59;4954937;29;20476;-66
2022/07/17 05:53:44;;;;;;;7.32;6.72;;;;;;;-141.48;100.00;69781.59;4970645;29;20049;-63
2022/07/17 05:56:14;;;;;;;8.68;6.53;;;;;;;-141.48;100.00;69781.59;4971033;29;20477;-63
2022/07/17 05:58:44;;;;;;;8.55;6.63;;;;;;;-141.48;100.00;69781.59;4971040;29;20027;-62
2022/07/17 06:01:15;;;;;;;7.43;6.93;;;;;;;-141.48;100.00;69781.59;4970947;29;20059;-67
2022/07/17 06:03:45;;;;;;;13.55;7.10;;;;;;;-141.48;100.00;69781.59;4970720;29;20026;-63
2022/07/17 06:06:16;;;;;;;8.15;7.38;;;;;;;-141.48;100.00;69781.59;4970472;29;20105;-64
2022/07/17 06:08:47;;;;;;;5.93;5.63;;;;;;;-141.48;100.00;69781.59;4954660;29;20030;-65
2022/07/17 06:11:17;;;;;;;7.95;5.88;;;;;;;-141.48;100.00;69781.59;4970834;29;20027;-63
2022/07/17 06:13:48;;;;;;;7.70;7.15;;;;;;;-141.48;100.00;69781.59;4970415;29;20030;-63
2022/07/17 06:16:18;;;;;;;6.20;5.60;;;;;;;-141.48;100.00;69781.59;4970415;29;20050;-65
2022/07/17 06:18:49;;;;;;;6.28;5.63;;;;;;;-141.48;100.00;69781.59;4970773;29;20034;-64
2022/07/17 06:21:19;;;;;;;8.32;7.72;;;;;;;-141.48;100.00;69781.59;4970950;29;20492;-65
2022/07/17 06:23:49;;;;;;;8.30;7.50;;;;;;;-141.48;100.00;69781.59;4954195;29;20035;-63
2022/07/17 06:26:20;;;;;;;6.45;6.05;;;;;;;-141.48;100.00;69781.59;4970844;29;20492;-63
2022/07/17 06:28:51;;;;;;;6.82;6.43;;;;;;;-141.48;100.00;69781.59;4970659;29;20034;-62
2022/07/17 06:31:22;;;;;;;8.68;6.95;;;;;;;-141.48;100.00;69781.59;4970412;29;20034;-64
2022/07/17 06:33:52;;;;;;;11.63;8.25;;;;;;;-141.48;100.00;69781.59;4970253;29;20053;-64
2022/07/17 06:36:23;;;;;;;7.68;7.28;;;;;;;-141.48;100.00;69781.59;4970486;29;20038;-63
2022/07/17 06:38:53;;;;;;;6.95;6.40;;;;;;;-141.48;100.00;69781.59;4970405;29;20042;-64
2022/07/17 06:41:23;;;;;;;11.57;6.38;;;;;;;-141.48;100.00;69781.59;4970309;29;20430;-62
2022/07/17 06:43:54;;;;;;;8.98;7.78;;;;;;;-141.48;100.00;69781.59;4969817;29;20499;-63
2022/07/17 06:46:25;;;;;;;7.38;5.82;;;;;;;-141.48;100.00;69781.59;4969991;29;20109;-63
2022/07/17 06:48:55;;;;;;;6.15;5.55;;;;;;;-141.48;100.00;69781.59;4970223;29;20049;-63
2022/07/17 06:51:29;;;;;;;7.88;5.68;;;;;;;-141.48;100.00;69781.59;4970362;29;20043;-62
2022/07/17 06:53:59;;;;;;;4.88;4.57;;;;;;;-141.48;100.00;69781.59;4953407;29;20035;-62
2022/07/17 06:56:29;;;;;;;4.88;4.57;;;;;;;-141.48;100.00;69781.59;4970005;29;20045;-62
2022/07/17 06:59:00;;;;;;;5.47;5.18;;;;;;;-141.48;100.00;69781.59;4969297;29;20026;-62
2022/07/17 07:01:30;;;;;;;4.10;3.80;;;;;;;-141.48;100.00;69781.59;4953958;29;20031;-63
2022/07/17 07:04:01;;;;;;;3.50;3.10;;;;;;;-141.48;100.00;69781.59;4953466;29;20041;-62
2022/07/17 07:06:31;;;;;;;6.15;4.85;;;;;;;-141.48;100.00;69781.59;4969826;29;20029;-63
2022/07/17 07:09:02;;;;;;;5.15;4.72;;;;;;;-141.48;100.00;69781.59;4970015;29;20031;-62
2022/07/17 07:11:32;;;;;;;5.57;4.53;;;;;;;-141.48;100.00;69781.59;4969873;29;20043;-62
2022/07/17 07:14:03;;;;;;;5.32;4.22;;;;;;;-141.48;100.00;69781.59;4953154;29;20388;-62
2022/07/17 07:16:34;;;;;;;6.68;6.03;;;;;;;-141.48;100.00;69781.59;4969652;29;20030;-62
2022/07/17 07:19:05;;;;;;;5.30;4.90;;;;;;;-141.48;100.00;69781.59;4953337;29;20038;-62
2022/07/17 07:21:35;;;;;;;4.40;4.00;;;;;;;-141.48;100.00;69781.59;4969830;29;20027;-62
2022/07/17 07:24:06;;;;;;;4.07;3.35;;;;;;;-141.48;100.00;69781.59;4969453;29;20065;-62
2022/07/17 07:26:36;;;;;;;10.05;6.57;;;;;;;-141.48;100.00;69781.59;4969774;29;20033;-62
2022/07/17 07:29:06;;;;;;;3.80;3.45;;;;;;;-141.48;100.00;69781.59;4969557;29;20393;-62
2022/07/17 07:31:37;;;;;;;3.60;3.30;;;;;;;-141.48;100.00;69781.59;4969918;29;20114;-62
2022/07/17 07:34:19;;;;;;;4.20;3.03;;;;;;;-141.48;100.00;69781.59;4969301;29;20022;-62
2022/07/17 07:36:49;;;;;;;7.18;4.05;;;;;;;-141.48;100.00;69781.59;4969401;29;20406;-63
2022/07/17 07:39:20;;;;;;;3.10;2.90;;;;;;;-141.48;100.00;69781.59;4969659;29;20069;-62
2022/07/17 07:41:50;;;;;;;2.72;2.40;;;;;;;-141.48;100.00;69781.59;4969435;29;20031;-62
2022/07/17 07:44:21;;;;;;;3.97;3.45;;;;;;;-141.48;100.00;69781.59;4968972;29;20095;-62
2022/07/17 07:46:51;;;;;;;3.25;2.60;;;;;;;-141.48;100.00;69781.59;4969539;29;20030;-62
2022/07/17 07:49:22;;;;;;;3.78;2.70;;;;;;;-141.48;100.00;69781.59;4969823;29;20159;-63
2022/07/17 07:51:52;;;;;;;4.50;2.92;;;;;;;-141.48;100.00;69781.59;4969754;29;20031;-63
2022/07/17 07:54:23;;;;;;;3.55;3.25;;;;;;;-141.48;100.00;69781.59;4969495;29;20023;-63
2022/07/17 07:56:54;;;;;;;3.47;3.33;;;;;;;-141.48;100.00;69781.59;4969572;29;20023;-63
2022/07/17 07:59:24;;;;;;;3.63;3.42;;;;;;;-141.48;100.00;69781.59;4969265;29;20038;-63
2022/07/17 08:01:55;;;;;;;3.45;3.25;;;;;;;-141.48;100.00;69781.59;4969494;29;20108;-67
2022/07/17 08:04:26;;;;;;;7.68;4.22;;;;;;;-141.48;100.00;69781.59;4969147;29;20034;-63
2022/07/17 08:06:56;;;;;;;6.35;2.95;;;;;;;-141.48;100.00;69781.59;4969502;29;20477;-63
2022/07/17 08:09:27;;;;;;;2.53;2.40;;;;;;;-141.48;100.00;69781.59;4969664;29;20484;-63
2022/07/17 08:11:57;;;;;;;2.70;2.60;;;;;;;-141.48;100.00;69781.59;4956786;29;20035;-63
2022/07/17 08:14:28;;;;;;;2.67;2.58;;;;;;;-141.48;100.00;69781.59;4972623;29;20038;-63
2022/07/17 08:16:58;;;;;;;7.35;3.10;;;;;;;-141.48;100.00;69781.59;4957092;29;20083;-63
2022/07/17 08:19:29;;;;;;;3.83;3.53;;;;;;;-141.48;100.00;69781.59;4973059;29;20034;-64
2022/07/17 08:21:59;;;;;;;3.22;2.92;;;;;;;-141.48;100.00;69781.59;4957058;29;20019;-63
2022/07/17 08:24:29;;;;;;;4.38;3.17;;;;;;;-141.48;100.00;69781.59;4972584;29;20038;-64
2022/07/17 08:27:00;;;;;;;2.92;2.83;;;;;;;-141.48;100.00;69781.59;4972841;29;20101;-64
2022/07/17 08:29:30;;;;;;;2.95;2.85;;;;;;;-141.48;100.00;69781.59;4956449;29;20035;-64
2022/07/17 08:32:01;;;;;;;2.72;2.60;;;;;;;-141.48;100.00;69781.59;4972700;29;20469;-64
2022/07/17 08:34:31;;;;;;;2.47;2.38;;;;;;;-141.48;100.00;69781.59;4972358;29;20034;-64
2022/07/17 08:37:02;;;;;;;3.60;2.55;;;;;;;-141.48;100.00;69781.59;4972463;29;20038;-62
2022/07/17 08:39:32;;;;;;;3.38;3.08;;;;;;;-141.48;100.00;69781.59;4972598;29;20049;-62
2022/07/17 08:42:03;;;;;;;3.85;3.58;;;;;;;-141.48;100.00;69781.59;4972543;29;20396;-63
2022/07/17 08:44:34;;;;;;;6.07;3.58;;;;;;;-141.48;100.00;69781.59;4971988;29;20100;-63
2022/07/17 08:47:05;;;;;;;5.78;2.45;;;;;;;-141.48;100.00;69781.59;4956095;29;20035;-63
2022/07/17 08:49:40;;;;;;;2.63;2.53;;;;;;;-141.48;100.00;69781.59;4972314;29;20079;-64
2022/07/17 08:52:12;;;;;;;2.75;2.65;;;;;;;-141.48;100.00;69781.59;4972031;29;20035;-64
2022/07/17 08:54:43;;;;;;;2.90;2.80;;;;;;;-141.48;100.00;69781.59;4971775;29;20067;-64
2022/07/17 08:57:13;;;;;;;5.10;2.95;;;;;;;-141.48;100.00;69781.59;4971922;29;20067;-64
2022/07/17 08:59:47;;;;;;;2.70;2.53;;;;;;;-141.48;100.00;69781.59;4972039;29;20050;-64
2022/07/17 09:02:18;;;;;;;4.28;2.83;;;;;;;-141.48;100.00;69781.59;4972100;29;20023;-64
2022/07/17 09:04:54;;;;;;;2.55;2.45;;;;;;;-141.48;100.00;69781.59;4971779;29;20033;-62
2022/07/17 09:07:25;;;;;;;2.80;2.70;;;;;;;-141.48;100.00;69781.59;4971923;29;20030;-64
2022/07/17 09:09:55;;;;;;;2.88;2.63;;;;;;;-141.48;100.00;69781.59;4955727;29;20030;-63
2022/07/17 09:12:28;;;;;;;2.45;2.35;;;;;;;-141.48;100.00;69781.59;4955538;29;20030;-64
2022/07/17 09:14:58;;;;;;;2.75;2.65;;;;;;;-141.48;100.00;69781.59;4971925;29;20096;-63
2022/07/17 09:17:29;;;;;;;2.83;2.60;;;;;;;-141.48;100.00;69781.59;4971920;29;20069;-63
2022/07/17 09:20:00;;;;;;;4.25;3.70;;;;;;;-141.48;100.00;69781.59;4956142;29;20023;-63
2022/07/17 09:22:30;;;;;;;2.78;2.67;;;;;;;-141.48;100.00;69781.59;4971312;29;20026;-63
2022/07/17 09:25:01;;;;;;;4.57;2.90;;;;;;;-141.48;100.00;69781.59;4940135;29;20034;-63
2022/07/17 09:27:33;;;;;;;3.85;2.88;;;;;;;-141.48;100.00;69781.59;4971599;29;20503;-64
2022/07/17 09:30:06;;;;;;;3.78;2.40;;;;;;;-141.48;100.00;69781.59;4971694;29;20042;-63
2022/07/17 09:32:38;;;;;;;2.75;2.35;;;;;;;-141.48;100.00;69781.59;4971641;29;20026;-64
2022/07/17 09:35:10;;;;;;;3.15;2.95;;;;;;;-141.48;100.00;69781.59;4971220;29;20038;-61
2022/07/17 09:37:41;;;;;;;2.65;2.55;;;;;;;-141.48;100.00;69781.59;4955067;29;20472;-64
2022/07/17 09:41:09;;;;;;;5.57;3.58;;;;;;;-141.48;100.00;69781.59;4971310;29;20027;-63
2022/07/17 09:43:07;;;;;;;5.25;4.28;;;;;;;-141.48;100.00;69781.59;4971065;29;20046;-64
2022/07/17 09:45:38;;;;;;;2.75;2.55;;;;;;;-141.48;100.00;69781.59;4939926;29;20078;-62
2022/07/17 09:48:09;;;;;;;3.75;2.53;;;;;;;-141.48;100.00;69781.59;4955223;29;20080;-62
2022/07/17 09:50:40;;;;;;;3.80;3.58;;;;;;;-141.48;100.00;69781.59;4955017;29;20035;-63
2022/07/17 09:53:11;;;;;;;2.53;2.40;;;;;;;-141.48;100.00;69781.59;4971246;29;20465;-63
2022/07/17 09:55:42;;;;;;;2.72;2.55;;;;;;;-141.48;100.00;69781.59;4970775;29;20456;-62
2022/07/17 09:58:16;;;;;;;3.50;3.40;;;;;;;-141.48;100.00;69781.59;4954884;29;20031;-63
2022/07/17 10:00:48;;;;;;;3.10;2.95;;;;;;;-141.48;100.00;69781.59;4971236;29;20350;-67
2022/07/17 10:03:19;;;;;;;3.10;3.00;;;;;;;-141.48;100.00;69781.59;4970770;29;20109;-63
2022/07/17 10:05:50;;;;;;;2.80;2.60;;;;;;;-141.48;100.00;69781.59;4970883;29;20489;-65
2022/07/17 10:08:22;;;;;;;3.97;3.30;;;;;;;-141.48;100.00;69781.59;4970994;29;20041;-62
2022/07/17 10:10:52;;;;;;;2.03;2.03;;;;;;;-141.48;100.00;69781.59;4970944;29;20217;-63
2022/07/17 10:13:23;;;;;;;2.78;2.55;;;;;;;-141.48;100.00;69781.59;4954449;29;20528;-66
2022/07/17 10:15:54;;;;;;;3.55;3.25;;;;;;;-141.48;100.00;69781.59;4971164;29;20031;-63
2022/07/17 10:18:41;;;;;;;4.05;3.40;;;;;;;-141.48;100.00;69781.59;4971203;29;20094;-63
2022/07/17 10:21:18;;;;;;;7.53;4.63;;;;;;;-141.48;100.00;69781.59;4970836;29;20027;-63
2022/07/17 10:24:07;;;;;;;2.20;2.10;;;;;;;-141.48;100.00;69781.59;4954120;29;20034;-64
2022/07/17 10:26:44;;;;;;;3.40;2.63;;;;;;;-141.48;100.00;69781.59;4954478;29;20027;-66
2022/07/17 10:29:38;;;;;;;2.50;2.40;;;;;;;-141.48;100.00;69781.59;4970858;29;20031;-63
2022/07/17 10:32:15;;;;;;;2.58;2.47;;;;;;;-141.48;100.00;69781.59;4970763;29;20480;-63
2022/07/17 10:35:00;;;;;;;3.63;2.00;;;;;;;-141.48;100.00;69781.59;4953482;29;20396;-65
2022/07/17 10:37:36;;;;;;;5.43;2.58;;;;;;;-141.48;100.00;69781.59;4970712;29;20058;-63
2022/07/17 10:40:11;;;;;;;2.72;2.58;;;;;;;-141.48;100.00;69781.59;4970646;29;20038;-63
2022/07/17 10:42:51;;;;;;;4.03;2.35;;;;;;;-141.48;100.00;69781.59;4970894;29;20133;-62
2022/07/17 10:45:34;;;;;;;1.60;1.50;;;;;;;-141.48;100.00;69781.59;4983191;24;20061;-63
2022/07/17 10:48:07;;;;;;;2.35;2.22;;;;;;;-141.48;100.00;69781.59;4970275;29;20109;-64
2022/07/17 10:50:38;;;;;;;2.95;2.75;;;;;;;-141.48;100.00;69781.59;4953764;29;20054;-65
2022/07/17 10:53:16;;;;;;;7.82;2.47;;;;;;;-141.48;100.00;69781.59;4954038;29;20030;-64
2022/07/17 10:55:49;;;;;;;2.53;2.10;;;;;;;-141.48;100.00;69781.59;4953668;29;20034;-64
2022/07/17 10:58:21;;;;;;;5.93;4.47;;;;;;;-141.48;100.00;69781.59;4953873;29;20636;-64
2022/07/17 11:01:14;;;;;;;3.25;2.72;;;;;;;-141.48;100.00;69781.59;4953811;29;20035;-64
2022/07/17 11:03:48;;;;;;;2.50;2.38;;;;;;;-141.48;100.00;69781.59;4969860;29;20089;-64
2022/07/17 11:06:23;;;;;;;2.10;1.95;;;;;;;-141.48;100.00;69781.59;4970377;29;20026;-65
2022/07/17 11:09:00;;;;;;;2.45;2.33;;;;;;;-141.48;100.00;69781.59;4970498;29;20034;-65
2022/07/17 11:11:38;;;;;;;1.88;1.77;;;;;;;-141.48;100.00;69781.59;4969816;29;20038;-64
2022/07/17 11:14:24;;;;;;;3.00;2.80;;;;;;;-141.48;100.00;69781.59;4969582;29;20522;-64
2022/07/17 11:16:57;;;;;;;6.88;2.45;;;;;;;-141.48;100.00;69781.59;4970366;29;20511;-64
2022/07/17 11:19:39;;;;;;;3.08;2.72;;;;;;;-141.48;100.00;69781.59;4970226;29;20102;-65
2022/07/17 11:22:11;;;;;;;2.00;1.90;;;;;;;-141.48;100.00;69781.59;4970125;29;20030;-64
2022/07/17 11:24:43;;;;;;;2.60;2.50;;;;;;;-141.48;100.00;69781.59;4969432;29;20479;-64
2022/07/17 11:27:22;;;;;;;2.13;2.03;;;;;;;-141.48;100.00;69781.59;4954129;29;20539;-64
2022/07/17 11:29:55;;;;;;;2.70;2.60;;;;;;;-141.48;100.00;69781.59;4953866;29;20380;-65